createdAt,value
2022-07-30T00:01:16.051Z,3.25
2022-07-30T00:03:42.675Z,3.50
2022-07-30T00:06:09.314Z,3.63
2022-07-30T00:08:35.831Z,3.70
2022-07-30T00:11:02.366Z,3.17
2022-07-30T00:13:29.532Z,3.72
2022-07-30T00:15:56.097Z,3.30
2022-07-30T00:18:22.634Z,3.17
2022-07-30T00:20:49.528Z,3.90
2022-07-30T00:23:17.186Z,3.85
2022-07-30T00:25:44.238Z,4.05
2022-07-30T00:28:11.079Z,3.40
2022-07-30T00:30:38.737Z,3.80
2022-07-30T00:33:05.504Z,3.42
2022-07-30T00:35:34.861Z,3.65
2022-07-30T00:38:01.498Z,3.95
2022-07-30T00:40:28.675Z,3.38
2022-07-30T00:42:55.219Z,3.67
2022-07-30T00:45:21.937Z,4.10
2022-07-30T00:47:48.806Z,3.78
2022-07-30T00:50:16.462Z,3.45
2022-07-30T00:52:43.695Z,3.90
2022-07-30T00:55:14.458Z,3.80
2022-07-30T00:57:42.975Z,3.47
2022-07-30T01:00:15.397Z,3.40
2022-07-30T01:02:42.071Z,3.50
2022-07-30T01:05:09.604Z,3.55
2022-07-30T01:07:36.579Z,3.38
2022-07-30T01:10:05.494Z,3.08
2022-07-30T01:12:32.719Z,3.28
2022-07-30T01:15:05.049Z,3.40
2022-07-30T01:17:32.099Z,3.30
2022-07-30T01:20:08.232Z,3.60
2022-07-30T01:22:57.724Z,3.53
2022-07-30T01:25:51.370Z,3.65
2022-07-30T01:28:23.411Z,3.90
2022-07-30T01:30:52.532Z,3.70
2022-07-30T01:33:22.190Z,3.45
2022-07-30T01:35:51.450Z,3.42
2022-07-30T01:38:23.011Z,3.40
2022-07-30T01:40:52.965Z,3.50
2022-07-30T01:43:23.642Z,2.97
2022-07-30T01:45:53.113Z,3.53
2022-07-30T01:48:23.204Z,3.97
2022-07-30T01:50:54.740Z,3.22
2022-07-30T01:53:25.790Z,3.42
2022-07-30T01:55:56.111Z,3.75
2022-07-30T01:58:29.387Z,3.78
2022-07-30T02:00:58.697Z,3.35
2022-07-30T02:03:26.687Z,3.33
2022-07-30T02:06:04.086Z,3.35
2022-07-30T02:08:39.347Z,3.53
2022-07-30T02:11:15.035Z,3.17
2022-07-30T02:13:50.418Z,3.70
2022-07-30T02:16:24.252Z,3.10
2022-07-30T02:19:04.449Z,3.42
2022-07-30T02:21:38.681Z,3.60
2022-07-30T02:24:12.775Z,3.28
2022-07-30T02:26:42.881Z,3.35
2022-07-30T02:29:11.743Z,3.80
2022-07-30T02:31:40.723Z,3.53
2022-07-30T02:34:10.053Z,3.40
2022-07-30T02:36:39.541Z,3.38
2022-07-30T02:39:08.474Z,3.65
2022-07-30T02:41:40.030Z,3.70
2022-07-30T02:44:08.351Z,3.50
2022-07-30T02:46:38.065Z,3.38
2022-07-30T02:49:07.262Z,4.00
2022-07-30T02:51:35.527Z,3.75
2022-07-30T02:54:03.960Z,3.95
2022-07-30T02:56:32.133Z,3.60
2022-07-30T02:59:03.071Z,3.45
2022-07-30T03:01:33.542Z,3.72
2022-07-30T03:04:02.754Z,3.25
2022-07-30T03:06:31.760Z,3.40
2022-07-30T03:09:01.135Z,4.10
2022-07-30T03:11:31.664Z,3.90
2022-07-30T03:13:58.312Z,3.78
2022-07-30T03:16:28.900Z,3.70
2022-07-30T03:19:02.310Z,3.67
2022-07-30T03:21:35.615Z,3.47
2022-07-30T03:24:04.978Z,3.30
2022-07-30T03:26:33.576Z,4.15
2022-07-30T03:29:02.031Z,3.63
2022-07-30T03:31:36.184Z,3.85
2022-07-30T03:34:07.144Z,3.50
2022-07-30T03:36:36.101Z,4.13
2022-07-30T03:39:05.345Z,3.95
2022-07-30T03:41:33.448Z,4.07
2022-07-30T03:44:00.975Z,4.28
2022-07-30T03:46:29.612Z,4.07
2022-07-30T03:48:58.727Z,4.13
2022-07-30T03:51:26.261Z,4.40
2022-07-30T03:54:01.330Z,3.70
2022-07-30T03:56:27.936Z,4.00
2022-07-30T03:58:54.880Z,3.63
2022-07-30T04:01:26.163Z,4.18
2022-07-30T04:03:53.268Z,3.97
2022-07-30T04:06:19.830Z,3.95
2022-07-30T04:08:46.341Z,3.63
2022-07-30T04:11:12.864Z,4.03
2022-07-30T04:13:39.481Z,3.13
2022-07-30T04:16:40.838Z,3.83
2022-07-30T04:19:08.835Z,4.03
2022-07-30T04:21:38.504Z,4.07
2022-07-30T04:24:08.030Z,3.78
2022-07-30T04:26:37.681Z,3.45
2022-07-30T04:29:09.164Z,3.65
2022-07-30T04:31:41.326Z,3.90
2022-07-30T04:34:12.211Z,3.90
2022-07-30T04:36:40.157Z,4.00
2022-07-30T04:39:07.003Z,3.80
2022-07-30T04:41:48.132Z,3.80
2022-07-30T04:44:20.003Z,4.30
2022-07-30T04:46:48.133Z,4.18
2022-07-30T04:49:18.832Z,4.30
2022-07-30T04:51:47.418Z,3.90
2022-07-30T04:54:16.404Z,4.15
2022-07-30T04:56:50.540Z,4.22
2022-07-30T04:59:24.878Z,4.93
2022-07-30T05:01:54.935Z,4.53
2022-07-30T05:04:24.373Z,4.53
2022-07-30T05:06:53.926Z,4.45
2022-07-30T05:09:21.349Z,4.65
2022-07-30T05:11:53.637Z,4.45
2022-07-30T05:14:22.290Z,4.30
2022-07-30T05:16:50.020Z,3.97
2022-07-30T05:19:19.123Z,4.45
2022-07-30T05:21:45.937Z,4.13
2022-07-30T05:24:12.507Z,3.70
2022-07-30T05:26:39.678Z,4.20
2022-07-30T05:29:07.258Z,4.18
2022-07-30T05:31:34.907Z,4.32
2022-07-30T05:34:03.463Z,4.10
2022-07-30T05:36:30.697Z,4.18
2022-07-30T05:38:57.204Z,4.32
2022-07-30T05:41:31.734Z,4.05
2022-07-30T05:43:59.262Z,3.75
2022-07-30T05:46:26.134Z,4.00
2022-07-30T05:48:53.378Z,3.88
2022-07-30T05:51:20.809Z,3.95
2022-07-30T05:53:47.767Z,4.28
2022-07-30T05:56:14.373Z,4.72
2022-07-30T05:58:40.938Z,5.00
2022-07-30T06:01:07.919Z,4.13
2022-07-30T06:03:34.858Z,4.28
2022-07-30T06:06:04.685Z,4.68
2022-07-30T06:08:31.589Z,4.03
2022-07-30T06:10:58.066Z,4.50
2022-07-30T06:13:24.660Z,4.93
2022-07-30T06:15:52.835Z,5.03
2022-07-30T06:18:19.587Z,5.28
2022-07-30T06:20:52.008Z,4.97
2022-07-30T06:23:19.506Z,4.78
2022-07-30T06:25:50.400Z,5.40
2022-07-30T06:28:37.105Z,5.43
2022-07-30T06:31:05.650Z,5.47
2022-07-30T06:33:32.256Z,5.38
2022-07-30T06:35:59.087Z,6.05
2022-07-30T06:38:25.599Z,6.70
2022-07-30T06:40:52.188Z,6.00
2022-07-30T06:43:20.218Z,6.10
2022-07-30T06:45:46.705Z,8.10
2022-07-30T06:48:13.412Z,6.85
2022-07-30T06:50:41.644Z,7.50
2022-07-30T06:53:08.192Z,6.57
2022-07-30T06:55:34.698Z,6.80
2022-07-30T06:58:01.167Z,6.50
2022-07-30T07:00:27.746Z,6.65
2022-07-30T07:02:54.303Z,7.35
2022-07-30T07:05:22.571Z,6.57
2022-07-30T07:07:58.666Z,7.45
2022-07-30T07:10:26.313Z,6.88
2022-07-30T07:12:52.878Z,7.57
2022-07-30T07:15:19.591Z,6.70
2022-07-30T07:17:49.135Z,6.30
2022-07-30T07:20:15.661Z,6.38
2022-07-30T07:22:42.166Z,7.45
2022-07-30T07:25:09.172Z,6.13
2022-07-30T07:27:37.718Z,6.38
2022-07-30T07:30:06.403Z,7.30
2022-07-30T07:32:35.171Z,6.65
2022-07-30T07:35:02.491Z,6.35
2022-07-30T07:37:29.327Z,5.95
2022-07-30T07:39:55.880Z,5.55
2022-07-30T07:42:22.610Z,4.72
2022-07-30T07:44:49.124Z,5.68
2022-07-30T07:47:15.666Z,6.45
2022-07-30T07:49:42.448Z,7.30
2022-07-30T07:52:09.282Z,7.68
2022-07-30T07:54:35.863Z,7.05
2022-07-30T07:57:04.493Z,7.85
2022-07-30T07:59:39.555Z,6.75
2022-07-30T08:02:08.549Z,8.77
2022-07-30T08:04:35.961Z,9.65
2022-07-30T08:07:03.272Z,10.18
2022-07-30T08:09:44.070Z,8.43
2022-07-30T08:12:14.437Z,9.95
2022-07-30T08:14:41.091Z,10.32
2022-07-30T08:17:08.353Z,9.95
2022-07-30T08:19:35.374Z,8.75
2022-07-30T08:22:01.901Z,8.40
2022-07-30T08:24:28.492Z,7.78
2022-07-30T08:26:54.998Z,7.95
2022-07-30T08:29:21.551Z,7.50
2022-07-30T08:31:48.264Z,6.22
2022-07-30T08:34:15.052Z,7.03
2022-07-30T08:36:42.015Z,7.75
2022-07-30T08:39:08.958Z,6.57
2022-07-30T08:41:38.726Z,9.05
2022-07-30T08:44:12.852Z,7.90
2022-07-30T08:46:47.420Z,7.57
2022-07-30T08:49:15.982Z,5.43
2022-07-30T08:51:43.347Z,6.55
2022-07-30T08:54:10.391Z,7.47
2022-07-30T08:56:37.217Z,6.10
2022-07-30T08:59:04.391Z,6.20
2022-07-30T09:01:30.965Z,7.57
2022-07-30T09:03:57.737Z,6.28
2022-07-30T09:06:24.515Z,5.95
2022-07-30T09:08:51.059Z,7.85
2022-07-30T09:11:17.590Z,6.47
2022-07-30T09:13:44.975Z,7.80
2022-07-30T09:16:26.462Z,7.30
2022-07-30T09:18:54.915Z,10.77
2022-07-30T09:21:28.505Z,6.93
2022-07-30T09:23:56.105Z,6.82
2022-07-30T09:26:22.655Z,7.20
2022-07-30T09:28:49.253Z,6.63
2022-07-30T09:31:18.381Z,6.50
2022-07-30T09:33:47.351Z,17.42
2022-07-30T09:36:18.544Z,7.63
2022-07-30T09:38:54.203Z,8.88
2022-07-30T09:41:39.140Z,9.02
2022-07-30T09:44:07.205Z,7.75
2022-07-30T09:46:51.451Z,7.50
2022-07-30T09:49:24.204Z,6.80
2022-07-30T09:52:06.476Z,7.75
2022-07-30T09:54:52.971Z,7.82
2022-07-30T09:57:26.010Z,8.50
2022-07-30T09:59:57.366Z,7.25
2022-07-30T10:02:32.836Z,7.00
2022-07-30T10:05:15.741Z,7.70
2022-07-30T10:08:05.454Z,8.10
2022-07-30T10:10:36.517Z,7.95
2022-07-30T10:13:16.889Z,7.15
2022-07-30T10:15:46.310Z,6.88
2022-07-30T10:18:16.036Z,6.45
2022-07-30T10:20:44.911Z,7.70
2022-07-30T10:23:15.754Z,6.00
2022-07-30T10:25:48.909Z,6.53
2022-07-30T10:28:17.907Z,6.30
2022-07-30T10:30:45.246Z,5.60
2022-07-30T10:33:34.865Z,6.03
2022-07-30T10:35:59.611Z,7.30
2022-07-30T10:38:33.770Z,6.65
2022-07-30T10:41:44.576Z,5.40
2022-07-30T10:45:01.391Z,7.57
2022-07-30T10:47:34.524Z,5.32
2022-07-30T10:50:19.548Z,5.68
2022-07-30T10:52:53.874Z,4.88
2022-07-30T10:55:37.128Z,5.90
2022-07-30T10:58:12.360Z,5.72
2022-07-30T11:00:52.826Z,5.97
2022-07-30T11:03:40.423Z,5.40
2022-07-30T11:06:24.423Z,5.22
2022-07-30T11:08:51.638Z,6.10
2022-07-30T11:11:28.681Z,5.22
2022-07-30T11:14:07.865Z,5.32
2022-07-30T11:16:34.690Z,5.00
2022-07-30T11:19:56.923Z,6.50
2022-07-30T11:22:44.915Z,6.22
2022-07-30T11:28:43.077Z,6.30
2022-07-30T11:31:54.926Z,7.03
2022-07-30T11:34:25.649Z,6.55
2022-07-30T11:37:19.075Z,6.13
2022-07-30T11:39:55.089Z,6.20
2022-07-30T11:42:41.652Z,6.18
2022-07-30T11:47:52.685Z,6.55
2022-07-30T11:50:27.175Z,6.53
2022-07-30T11:52:58.302Z,6.80
2022-07-30T11:55:44.548Z,6.28
2022-07-30T11:58:26.540Z,5.88
2022-07-30T12:01:20.647Z,6.47
2022-07-30T12:03:47.624Z,5.68
2022-07-30T12:06:19.876Z,6.22
2022-07-30T12:08:49.558Z,5.63
2022-07-30T12:11:17.194Z,5.78
2022-07-30T12:13:55.603Z,5.90
2022-07-30T12:16:22.169Z,5.13
2022-07-30T12:18:48.795Z,5.05
2022-07-30T12:21:16.135Z,5.55
2022-07-30T12:24:03.839Z,5.40
2022-07-30T12:26:34.517Z,5.65
2022-07-30T12:29:07.238Z,5.13
2022-07-30T12:31:34.170Z,5.50
2022-07-30T12:34:04.959Z,5.28
2022-07-30T12:36:35.698Z,5.05
2022-07-30T12:39:06.226Z,4.75
2022-07-30T12:41:51.259Z,5.38
2022-07-30T12:44:38.508Z,5.40
2022-07-30T12:47:28.785Z,5.50
2022-07-30T12:49:58.682Z,4.90
2022-07-30T12:52:30.891Z,4.95
2022-07-30T12:55:11.275Z,5.00
2022-07-30T12:58:08.642Z,4.93
2022-07-30T13:00:44.701Z,4.85
2022-07-30T13:03:26.844Z,4.70
2022-07-30T13:05:56.649Z,5.35
2022-07-30T13:08:56.711Z,5.65
2022-07-30T13:11:38.564Z,4.72
2022-07-30T13:14:05.690Z,4.65
2022-07-30T13:16:35.591Z,5.78
2022-07-30T13:19:12.076Z,5.20
2022-07-30T13:21:40.965Z,5.25
2022-07-30T13:24:17.912Z,4.32
2022-07-30T13:26:45.590Z,5.07
2022-07-30T13:29:13.463Z,4.68
2022-07-30T13:31:43.296Z,4.88
2022-07-30T13:34:11.216Z,5.10
2022-07-30T13:36:37.773Z,4.20
2022-07-30T13:39:04.346Z,4.57
2022-07-30T13:41:30.959Z,4.70
2022-07-30T13:43:57.584Z,4.07
2022-07-30T13:46:24.123Z,4.78
2022-07-30T13:48:50.854Z,4.50
2022-07-30T13:51:17.607Z,4.32
2022-07-30T13:53:44.215Z,4.70
2022-07-30T13:56:12.460Z,5.00
2022-07-30T13:58:40.366Z,4.13
2022-07-30T14:01:07.368Z,4.22
2022-07-30T14:03:35.333Z,4.13
2022-07-30T14:06:10.709Z,3.95
2022-07-30T14:08:38.047Z,3.97
2022-07-30T14:11:04.558Z,3.33
2022-07-30T14:13:31.164Z,4.40
2022-07-30T14:15:57.984Z,4.05
2022-07-30T14:18:24.516Z,4.38
2022-07-30T14:20:53.505Z,4.28
2022-07-30T14:23:20.312Z,4.32
2022-07-30T14:25:46.994Z,4.00
2022-07-30T14:28:13.850Z,4.13
2022-07-30T14:30:42.115Z,4.82
2022-07-30T14:33:08.913Z,4.25
2022-07-30T14:35:35.519Z,4.13
2022-07-30T14:38:03.404Z,4.65
2022-07-30T14:40:30.220Z,4.60
2022-07-30T14:42:56.839Z,4.55
2022-07-30T14:45:24.728Z,4.28
2022-07-30T14:47:52.293Z,4.30
2022-07-30T14:50:18.846Z,4.00
2022-07-30T14:52:47.375Z,3.80
2022-07-30T14:55:14.328Z,3.80
2022-07-30T14:57:41.010Z,4.22
2022-07-30T15:00:10.878Z,3.83
2022-07-30T15:02:38.082Z,3.80
2022-07-30T15:05:05.224Z,3.88
2022-07-30T15:07:32.479Z,4.07
2022-07-30T15:10:01.480Z,4.35
2022-07-30T15:12:28.317Z,4.22
2022-07-30T15:14:54.942Z,3.83
2022-07-30T15:17:22.285Z,3.90
2022-07-30T15:19:51.171Z,3.60
2022-07-30T15:22:19.725Z,3.20
2022-07-30T15:24:46.670Z,2.60
2022-07-30T15:27:13.275Z,2.85
2022-07-30T15:29:39.831Z,3.92
2022-07-30T15:32:07.202Z,3.00
2022-07-30T15:34:34.423Z,2.92
2022-07-30T15:37:03.714Z,3.08
2022-07-30T15:39:32.831Z,3.50
2022-07-30T15:42:05.741Z,2.83
2022-07-30T15:44:32.590Z,3.17
2022-07-30T15:47:00.464Z,3.10
2022-07-30T15:49:28.245Z,2.22
2022-07-30T15:51:54.967Z,3.17
2022-07-30T15:54:23.931Z,2.70
2022-07-30T15:56:54.515Z,2.72
2022-07-30T15:59:28.425Z,3.20
2022-07-30T16:01:54.938Z,3.10
2022-07-30T16:04:21.537Z,2.55
2022-07-30T16:06:58.524Z,2.53
2022-07-30T16:09:25.803Z,2.40
2022-07-30T16:11:53.660Z,1.88
2022-07-30T16:14:20.486Z,2.60
2022-07-30T16:16:47.208Z,2.10
2022-07-30T16:19:13.853Z,3.08
2022-07-30T16:21:41.055Z,3.15
2022-07-30T16:24:08.664Z,2.70
2022-07-30T16:26:37.122Z,2.55
2022-07-30T16:29:08.564Z,2.28
2022-07-30T16:31:39.166Z,2.10
2022-07-30T16:34:06.564Z,2.15
2022-07-30T16:36:33.263Z,3.40
2022-07-30T16:39:01.115Z,2.90
2022-07-30T16:41:27.774Z,3.05
2022-07-30T16:43:54.350Z,3.20
2022-07-30T16:46:20.871Z,2.17
2022-07-30T16:48:47.433Z,2.85
2022-07-30T16:51:17.350Z,2.20
2022-07-30T16:53:44.250Z,2.38
2022-07-30T16:56:10.777Z,2.85
2022-07-30T16:58:37.385Z,2.58
2022-07-30T17:01:04.071Z,3.28
2022-07-30T17:03:30.594Z,3.30
2022-07-30T17:05:57.127Z,3.17
2022-07-30T17:08:25.186Z,3.20
2022-07-30T17:10:52.912Z,2.75
2022-07-30T17:13:20.549Z,3.20
2022-07-30T17:15:47.653Z,3.33
2022-07-30T17:18:14.642Z,3.25
2022-07-30T17:20:41.275Z,3.28
2022-07-30T17:23:07.911Z,2.47
2022-07-30T17:25:34.517Z,2.63
2022-07-30T17:28:01.907Z,3.03
2022-07-30T17:30:29.600Z,2.83
2022-07-30T17:32:56.982Z,3.40
2022-07-30T17:35:24.697Z,3.40
2022-07-30T17:37:51.434Z,2.72
2022-07-30T17:40:29.820Z,3.20
2022-07-30T17:43:03.364Z,3.00
2022-07-30T17:45:31.920Z,3.53
2022-07-30T17:47:58.467Z,3.13
2022-07-30T17:50:25.095Z,3.00
2022-07-30T17:52:51.618Z,3.13
2022-07-30T17:55:18.252Z,3.35
2022-07-30T17:57:44.801Z,3.15
2022-07-30T18:00:12.026Z,3.25
2022-07-30T18:02:38.951Z,3.13
2022-07-30T18:05:05.988Z,3.53
2022-07-30T18:07:32.633Z,3.10
2022-07-30T18:09:59.208Z,3.08
2022-07-30T18:12:25.739Z,3.70
2022-07-30T18:14:52.400Z,3.53
2022-07-30T18:17:18.970Z,3.38
2022-07-30T18:19:45.538Z,2.78
2022-07-30T18:22:14.726Z,3.08
2022-07-30T18:24:43.665Z,2.53
2022-07-30T18:27:12.139Z,2.28
2022-07-30T18:29:38.682Z,2.70
2022-07-30T18:32:06.251Z,3.30
2022-07-30T18:34:33.548Z,2.40
2022-07-30T18:37:00.133Z,3.22
2022-07-30T18:39:26.681Z,2.20
2022-07-30T18:41:53.260Z,2.25
2022-07-30T18:44:20.080Z,2.63
2022-07-30T18:46:46.714Z,2.05
2022-07-30T18:49:34.223Z,2.85
2022-07-30T18:52:01.287Z,2.22
2022-07-30T18:54:29.399Z,2.75
2022-07-30T18:56:56.294Z,1.90
2022-07-30T18:59:23.035Z,2.72
2022-07-30T19:01:49.635Z,3.03
2022-07-30T19:04:16.204Z,2.15
2022-07-30T19:06:42.750Z,1.98
2022-07-30T19:09:17.223Z,2.17
2022-07-30T19:11:46.158Z,2.57
2022-07-30T19:14:14.021Z,2.30
2022-07-30T19:16:42.653Z,2.67
2022-07-30T19:19:13.671Z,2.03
2022-07-30T19:21:41.176Z,2.10
2022-07-30T19:24:10.274Z,2.15
2022-07-30T19:26:39.238Z,2.35
2022-07-30T19:29:07.811Z,2.92
2022-07-30T19:31:35.303Z,1.95
2022-07-30T19:34:02.127Z,2.45
2022-07-30T19:36:30.102Z,2.28
2022-07-30T19:38:58.775Z,2.53
2022-07-30T19:41:25.364Z,2.65
2022-07-30T19:43:57.817Z,2.33
2022-07-30T19:46:25.464Z,3.13
2022-07-30T19:48:52.183Z,2.17
2022-07-30T19:51:20.756Z,2.20
2022-07-30T19:53:47.842Z,2.17
2022-07-30T19:56:14.417Z,2.20
2022-07-30T19:58:41.562Z,2.20
2022-07-30T20:01:10.056Z,2.30
2022-07-30T20:03:38.652Z,2.08
2022-07-30T20:06:08.076Z,2.30
2022-07-30T20:08:38.472Z,2.10
2022-07-30T20:11:07.299Z,2.15
2022-07-30T20:13:45.557Z,2.45
2022-07-30T20:16:14.893Z,2.67
2022-07-30T20:18:42.969Z,2.30
2022-07-30T20:21:15.023Z,2.35
2022-07-30T20:23:42.794Z,2.60
2022-07-30T20:26:13.589Z,2.03
2022-07-30T20:28:42.316Z,2.50
2022-07-30T20:31:08.877Z,1.90
2022-07-30T20:33:37.920Z,2.20
2022-07-30T20:36:09.673Z,2.90
2022-07-30T20:38:39.025Z,2.85
2022-07-30T20:41:09.857Z,2.47
2022-07-30T20:43:51.428Z,2.38
2022-07-30T20:46:20.216Z,2.47
2022-07-30T20:48:46.846Z,2.63
2022-07-30T20:51:13.742Z,2.38
2022-07-30T20:53:41.774Z,2.30
2022-07-30T20:56:13.472Z,2.70
2022-07-30T20:58:41.664Z,2.40
2022-07-30T21:01:15.488Z,2.78
2022-07-30T21:03:44.026Z,2.47
2022-07-30T21:06:14.876Z,2.50
2022-07-30T21:08:41.386Z,2.40
2022-07-30T21:11:07.927Z,2.22
2022-07-30T21:13:36.526Z,2.50
2022-07-30T21:16:03.578Z,2.30
2022-07-30T21:18:31.458Z,3.30
2022-07-30T21:21:00.647Z,3.05
2022-07-30T21:23:27.527Z,2.40
2022-07-30T21:26:00.906Z,2.42
2022-07-30T21:28:29.130Z,2.53
2022-07-30T21:30:57.412Z,2.50
2022-07-30T21:33:24.423Z,2.53
2022-07-30T21:35:57.555Z,2.40
2022-07-30T21:38:26.291Z,2.55
2022-07-30T21:40:52.833Z,2.78
2022-07-30T21:43:22.964Z,2.60
2022-07-30T21:45:56.591Z,2.88
2022-07-30T21:48:24.838Z,2.60
2022-07-30T21:50:54.868Z,2.70
2022-07-30T21:53:29.886Z,2.80
2022-07-30T21:56:08.402Z,2.50
2022-07-30T21:58:34.899Z,2.80
2022-07-30T22:01:16.839Z,2.80
2022-07-30T22:04:04.421Z,2.60
2022-07-30T22:06:39.218Z,2.80
2022-07-30T22:12:06.277Z,2.70
2022-07-30T22:14:33.140Z,2.80
2022-07-30T22:17:00.314Z,2.92
2022-07-30T22:19:26.844Z,2.88
2022-07-30T22:21:54.165Z,2.60
2022-07-30T22:24:29.806Z,2.65
2022-07-30T22:27:11.067Z,2.70
2022-07-30T22:29:43.030Z,2.95
2022-07-30T22:32:10.926Z,2.78
2022-07-30T22:34:37.781Z,2.75
2022-07-30T22:37:04.363Z,2.58
2022-07-30T22:39:49.339Z,2.53
2022-07-30T22:42:23.996Z,2.60
2022-07-30T22:44:51.331Z,2.83
2022-07-30T22:47:18.857Z,2.60
2022-07-30T22:52:40.007Z,2.45
2022-07-30T22:55:15.527Z,2.50
2022-07-30T22:57:48.797Z,2.70
2022-07-30T23:00:27.774Z,2.42
2022-07-30T23:02:56.847Z,2.53
2022-07-30T23:05:24.800Z,2.75
2022-07-30T23:07:51.495Z,2.92
2022-07-30T23:10:20.714Z,2.70
2022-07-30T23:12:28.284Z,2.60
2022-07-30T23:12:34.529Z,2.83
2022-07-30T23:12:53.825Z,2.60
2022-07-30T23:15:21.897Z,2.88
2022-07-30T23:17:48.639Z,2.90
2022-07-30T23:20:20.899Z,3.13
2022-07-30T23:22:48.431Z,3.03
2022-07-30T23:25:15.307Z,2.92
2022-07-30T23:27:42.877Z,3.42
2022-07-30T23:30:11.477Z,2.63
2022-07-30T23:32:39.954Z,3.13
2022-07-30T23:35:09.958Z,3.20
2022-07-30T23:37:48.209Z,2.88
2022-07-30T23:40:19.593Z,2.83
2022-07-30T23:42:47.476Z,3.17
2022-07-30T23:45:14.590Z,2.50
2022-07-30T23:47:58.018Z,2.58
2022-07-30T23:50:28.129Z,2.60
2022-07-30T23:52:55.652Z,2.72
2022-07-30T23:55:22.375Z,2.90
2022-07-30T23:57:48.919Z,2.65
